sensor_id;sensor_type;location;lat;lon;timestamp;pressure;altitude;pressure_sealevel;temperature;humidity
69784;BME280;57054;51.978;4.498;2023-03-18T00:01:23;100764.75;;;10.18;89.98
69784;BME280;57054;51.978;4.498;2023-03-18T00:03:48;100774.44;;;10.16;89.81
69784;BME280;57054;51.978;4.498;2023-03-18T00:06:16;100775.47;;;10.12;90.00
69784;BME280;57054;51.978;4.498;2023-03-18T00:08:43;100781.75;;;10.08;89.95
69784;BME280;57054;51.978;4.498;2023-03-18T00:11:13;100774.84;;;10.05;90.12
69784;BME280;57054;51.978;4.498;2023-03-18T00:13:40;100775.84;;;10.03;89.82
69784;BME280;57054;51.978;4.498;2023-03-18T00:16:08;100775.94;;;9.99;90.23
69784;BME280;57054;51.978;4.498;2023-03-18T00:18:35;100776.06;;;9.96;90.24
69784;BME280;57054;51.978;4.498;2023-03-18T00:21:01;100780.50;;;9.94;90.25
69784;BME280;57054;51.978;4.498;2023-03-18T00:23:27;100771.91;;;9.91;90.24
69784;BME280;57054;51.978;4.498;2023-03-18T00:25:55;100778.06;;;9.90;90.66
69784;BME280;57054;51.978;4.498;2023-03-18T00:28:24;100773.81;;;9.87;90.61
69784;BME280;57054;51.978;4.498;2023-03-18T00:30:52;100774.78;;;9.85;90.72
69784;BME280;57054;51.978;4.498;2023-03-18T00:33:17;100771.38;;;9.83;90.37
69784;BME280;57054;51.978;4.498;2023-03-18T00:35:44;100773.19;;;9.80;90.62
69784;BME280;57054;51.978;4.498;2023-03-18T00:38:11;100776.72;;;9.79;90.89
69784;BME280;57054;51.978;4.498;2023-03-18T00:40:48;100778.53;;;9.77;91.05
69784;BME280;57054;51.978;4.498;2023-03-18T00:43:19;100766.38;;;9.76;90.70
69784;BME280;57054;51.978;4.498;2023-03-18T00:45:47;100762.13;;;9.74;91.13
69784;BME280;57054;51.978;4.498;2023-03-18T00:48:13;100769.13;;;9.73;91.36
69784;BME280;57054;51.978;4.498;2023-03-18T00:50:39;100775.25;;;9.72;91.24
69784;BME280;57054;51.978;4.498;2023-03-18T00:53:05;100777.03;;;9.72;91.39
69784;BME280;57054;51.978;4.498;2023-03-18T00:55:31;100777.06;;;9.70;91.30
69784;BME280;57054;51.978;4.498;2023-03-18T00:57:56;100771.00;;;9.70;91.73
69784;BME280;57054;51.978;4.498;2023-03-18T01:00:22;100771.91;;;9.69;91.65
69784;BME280;57054;51.978;4.498;2023-03-18T01:02:49;100768.44;;;9.68;91.67
69784;BME280;57054;51.978;4.498;2023-03-18T01:05:15;100770.19;;;9.68;91.71
69784;BME280;57054;51.978;4.498;2023-03-18T01:07:41;100769.28;;;9.69;92.13
69784;BME280;57054;51.978;4.498;2023-03-18T01:10:08;100766.72;;;9.67;91.86
69784;BME280;57054;51.978;4.498;2023-03-18T01:12:34;100771.94;;;9.67;91.90
69784;BME280;57054;51.978;4.498;2023-03-18T01:15:02;100764.16;;;9.66;92.13
69784;BME280;57054;51.978;4.498;2023-03-18T01:17:29;100764.16;;;9.66;92.08
69784;BME280;57054;51.978;4.498;2023-03-18T01:19:55;100769.38;;;9.66;92.24
69784;BME280;57054;51.978;4.498;2023-03-18T01:22:21;100771.16;;;9.65;92.30
69784;BME280;57054;51.978;4.498;2023-03-18T01:24:47;100779.06;;;9.64;92.29
69784;BME280;57054;51.978;4.498;2023-03-18T01:27:12;100773.78;;;9.65;92.17
69784;BME280;57054;51.978;4.498;2023-03-18T01:29:38;100784.28;;;9.64;92.46
69784;BME280;57054;51.978;4.498;2023-03-18T01:32:03;100780.81;;;9.63;92.31
69784;BME280;57054;51.978;4.498;2023-03-18T01:34:29;100779.06;;;9.64;92.41
69784;BME280;57054;51.978;4.498;2023-03-18T01:36:55;100779.09;;;9.62;92.50
69784;BME280;57054;51.978;4.498;2023-03-18T01:39:22;100777.38;;;9.63;92.42
69784;BME280;57054;51.978;4.498;2023-03-18T01:41:48;100766.03;;;9.62;92.62
69784;BME280;57054;51.978;4.498;2023-03-18T01:44:20;100775.66;;;9.61;92.47
69784;BME280;57054;51.978;4.498;2023-03-18T01:46:47;100771.25;;;9.62;92.72
69784;BME280;57054;51.978;4.498;2023-03-18T01:49:20;100772.97;;;9.63;92.33
69784;BME280;57054;51.978;4.498;2023-03-18T01:51:54;100767.75;;;9.63;92.32
69784;BME280;57054;51.978;4.498;2023-03-18T01:54:22;100766.91;;;9.63;92.67
69784;BME280;57054;51.978;4.498;2023-03-18T01:56:49;100767.75;;;9.63;92.71
69784;BME280;57054;51.978;4.498;2023-03-18T01:59:16;100773.81;;;9.64;92.27
69784;BME280;57054;51.978;4.498;2023-03-18T02:01:52;100783.44;;;9.63;92.71
69784;BME280;57054;51.978;4.498;2023-03-18T02:04:22;100775.66;;;9.61;92.45
69784;BME280;57054;51.978;4.498;2023-03-18T02:06:49;100783.50;;;9.61;92.65
69784;BME280;57054;51.978;4.498;2023-03-18T02:09:15;100786.16;;;9.60;92.65
69784;BME280;57054;51.978;4.498;2023-03-18T02:11:43;100784.47;;;9.59;92.75
69784;BME280;57054;51.978;4.498;2023-03-18T02:14:11;100782.75;;;9.58;93.02
69784;BME280;57054;51.978;4.498;2023-03-18T02:16:50;100779.34;;;9.56;92.88
69784;BME280;57054;51.978;4.498;2023-03-18T02:19:42;100774.19;;;9.54;93.11
69784;BME280;57054;51.978;4.498;2023-03-18T02:29:45;100787.19;;;9.56;92.85
69784;BME280;57054;51.978;4.498;2023-03-18T02:32:12;100793.25;;;9.56;93.14
69784;BME280;57054;51.978;4.498;2023-03-18T02:34:39;100792.38;;;9.57;93.26
69784;BME280;57054;51.978;4.498;2023-03-18T02:37:06;100787.97;;;9.58;93.12
69784;BME280;57054;51.978;4.498;2023-03-18T02:39:34;100787.09;;;9.59;93.54
69784;BME280;57054;51.978;4.498;2023-03-18T02:42:00;100774.88;;;9.59;93.49
69784;BME280;57054;51.978;4.498;2023-03-18T02:44:25;100785.25;;;9.61;93.63
69784;BME280;57054;51.978;4.498;2023-03-18T02:49:18;100786.91;;;9.64;93.68
69784;BME280;57054;51.978;4.498;2023-03-18T02:51:44;100791.22;;;9.65;93.74
69784;BME280;57054;51.978;4.498;2023-03-18T02:54:16;100786.84;;;9.65;93.75
69784;BME280;57054;51.978;4.498;2023-03-18T02:56:42;100787.69;;;9.66;93.38
69784;BME280;57054;51.978;4.498;2023-03-18T02:59:09;100793.78;;;9.66;93.88
69784;BME280;57054;51.978;4.498;2023-03-18T03:01:36;100799.03;;;9.66;93.81
69784;BME280;57054;51.978;4.498;2023-03-18T03:04:03;100791.09;;;9.68;93.71
69784;BME280;57054;51.978;4.498;2023-03-18T03:06:29;100794.63;;;9.67;94.11
69784;BME280;57054;51.978;4.498;2023-03-18T03:08:55;100796.41;;;9.66;94.18
69784;BME280;57054;51.978;4.498;2023-03-18T03:11:21;100792.88;;;9.67;94.01
69784;BME280;57054;51.978;4.498;2023-03-18T03:13:48;100792.03;;;9.67;94.04
69784;BME280;57054;51.978;4.498;2023-03-18T03:16:14;100800.72;;;9.67;94.09
69784;BME280;57054;51.978;4.498;2023-03-18T03:18:41;100792.81;;;9.69;94.25
69784;BME280;57054;51.978;4.498;2023-03-18T03:21:07;100797.19;;;9.68;94.02
69784;BME280;57054;51.978;4.498;2023-03-18T03:23:34;100810.22;;;9.70;94.09
69784;BME280;57054;51.978;4.498;2023-03-18T03:26:00;100808.50;;;9.69;94.27
69784;BME280;57054;51.978;4.498;2023-03-18T03:28:26;100811.06;;;9.70;93.75
69784;BME280;57054;51.978;4.498;2023-03-18T03:30:52;100809.28;;;9.71;93.85
69784;BME280;57054;51.978;4.498;2023-03-18T03:33:17;100811.91;;;9.71;93.85
69784;BME280;57054;51.978;4.498;2023-03-18T03:35:43;100813.63;;;9.72;93.73
69784;BME280;57054;51.978;4.498;2023-03-18T03:38:08;100819.69;;;9.72;93.83
69784;BME280;57054;51.978;4.498;2023-03-18T03:40:35;100824.09;;;9.72;94.13
69784;BME280;57054;51.978;4.498;2023-03-18T03:43:00;100817.16;;;9.71;94.06
69784;BME280;57054;51.978;4.498;2023-03-18T03:45:26;100821.47;;;9.72;94.60
69784;BME280;57054;51.978;4.498;2023-03-18T03:47:52;100826.75;;;9.70;94.83
69784;BME280;57054;51.978;4.498;2023-03-18T03:50:18;100825.03;;;9.69;95.35
69784;BME280;57054;51.978;4.498;2023-03-18T03:52:44;100819.81;;;9.69;95.46
69784;BME280;57054;51.978;4.498;2023-03-18T03:55:12;100827.66;;;9.69;95.41
69784;BME280;57054;51.978;4.498;2023-03-18T03:57:38;100827.66;;;9.69;95.67
69784;BME280;57054;51.978;4.498;2023-03-18T04:00:10;100824.19;;;9.69;95.66
69784;BME280;57054;51.978;4.498;2023-03-18T04:02:38;100818.97;;;9.69;95.53
69784;BME280;57054;51.978;4.498;2023-03-18T04:05:04;100814.63;;;9.68;95.43
69784;BME280;57054;51.978;4.498;2023-03-18T04:07:30;100819.88;;;9.68;95.54
69784;BME280;57054;51.978;4.498;2023-03-18T04:09:55;100825.03;;;9.69;95.62
69784;BME280;57054;51.978;4.498;2023-03-18T04:12:21;100827.66;;;9.69;95.65
69784;BME280;57054;51.978;4.498;2023-03-18T04:14:46;100825.97;;;9.68;95.58
69784;BME280;57054;51.978;4.498;2023-03-18T04:17:12;100831.19;;;9.68;95.32
69784;BME280;57054;51.978;4.498;2023-03-18T04:19:38;100829.44;;;9.69;95.53
69784;BME280;57054;51.978;4.498;2023-03-18T04:22:04;100829.47;;;9.67;95.93
69784;BME280;57054;51.978;4.498;2023-03-18T04:24:29;100835.56;;;9.68;95.93
69784;BME280;57054;51.978;4.498;2023-03-18T04:26:55;100843.41;;;9.68;95.82
69784;BME280;57054;51.978;4.498;2023-03-18T04:29:21;100847.78;;;9.67;95.76
69784;BME280;57054;51.978;4.498;2023-03-18T04:31:47;100853.84;;;9.68;96.25
69784;BME280;57054;51.978;4.498;2023-03-18T04:34:12;100862.56;;;9.68;96.12
69784;BME280;57054;51.978;4.498;2023-03-18T04:36:37;100865.19;;;9.68;96.11
69784;BME280;57054;51.978;4.498;2023-03-18T04:39:03;100874.72;;;9.69;97.13
69784;BME280;57054;51.978;4.498;2023-03-18T04:41:29;100871.25;;;9.69;97.60
69784;BME280;57054;51.978;4.498;2023-03-18T04:43:54;100880.00;;;9.68;98.97
69784;BME280;57054;51.978;4.498;2023-03-18T04:46:21;100883.59;;;9.65;99.16
69784;BME280;57054;51.978;4.498;2023-03-18T04:48:47;100883.66;;;9.64;99.35
69784;BME280;57054;51.978;4.498;2023-03-18T04:51:12;100879.28;;;9.64;99.61
69784;BME280;57054;51.978;4.498;2023-03-18T04:53:38;100886.25;;;9.64;99.50
69784;BME280;57054;51.978;4.498;2023-03-18T04:56:04;100887.19;;;9.63;99.21
69784;BME280;57054;51.978;4.498;2023-03-18T04:58:30;100886.31;;;9.62;99.29
69784;BME280;57054;51.978;4.498;2023-03-18T05:00:56;100890.66;;;9.63;98.98
69784;BME280;57054;51.978;4.498;2023-03-18T05:03:22;100886.31;;;9.62;98.99
69784;BME280;57054;51.978;4.498;2023-03-18T05:05:48;100892.41;;;9.63;98.83
69784;BME280;57054;51.978;4.498;2023-03-18T05:08:14;100881.97;;;9.63;98.81
69784;BME280;57054;51.978;4.498;2023-03-18T05:10:40;100882.84;;;9.61;98.80
69784;BME280;57054;51.978;4.498;2023-03-18T05:13:08;100888.94;;;9.62;98.55
69784;BME280;57054;51.978;4.498;2023-03-18T05:15:35;100879.34;;;9.63;98.43
69784;BME280;57054;51.978;4.498;2023-03-18T05:18:00;100882.84;;;9.61;97.88
69784;BME280;57054;51.978;4.498;2023-03-18T05:20:26;100872.41;;;9.61;98.10
69784;BME280;57054;51.978;4.498;2023-03-18T05:22:52;100875.06;;;9.60;97.68
69784;BME280;57054;51.978;4.498;2023-03-18T05:25:19;100880.28;;;9.60;97.43
69784;BME280;57054;51.978;4.498;2023-03-18T05:27:44;100874.16;;;9.61;97.51
69784;BME280;57054;51.978;4.498;2023-03-18T05:30:12;100872.44;;;9.60;97.57
69784;BME280;57054;51.978;4.498;2023-03-18T05:32:39;100878.56;;;9.60;97.38
69784;BME280;57054;51.978;4.498;2023-03-18T05:35:06;100876.84;;;9.59;97.46
69784;BME280;57054;51.978;4.498;2023-03-18T05:37:32;100873.31;;;9.60;97.40
69784;BME280;57054;51.978;4.498;2023-03-18T05:39:57;100876.84;;;9.59;97.30
69784;BME280;57054;51.978;4.498;2023-03-18T05:42:22;100878.59;;;9.59;97.43
69784;BME280;57054;51.978;4.498;2023-03-18T05:44:48;100873.38;;;9.59;97.44
69784;BME280;57054;51.978;4.498;2023-03-18T05:47:14;100875.13;;;9.58;97.30
69784;BME280;57054;51.978;4.498;2023-03-18T05:49:41;100863.81;;;9.58;97.63
69784;BME280;57054;51.978;4.498;2023-03-18T05:52:07;100859.50;;;9.57;97.33
69784;BME280;57054;51.978;4.498;2023-03-18T05:54:32;100872.56;;;9.57;97.22
69784;BME280;57054;51.978;4.498;2023-03-18T05:56:58;100883.03;;;9.57;97.23
69784;BME280;57054;51.978;4.498;2023-03-18T05:59:24;100876.09;;;9.56;97.22
69784;BME280;57054;51.978;4.498;2023-03-18T06:01:49;100885.69;;;9.55;97.17
69784;BME280;57054;51.978;4.498;2023-03-18T06:04:15;100879.59;;;9.55;97.18
69784;BME280;57054;51.978;4.498;2023-03-18T06:06:44;100890.13;;;9.53;97.50
69784;BME280;57054;51.978;4.498;2023-03-18T06:09:11;100890.19;;;9.52;97.30
69784;BME280;57054;51.978;4.498;2023-03-18T06:11:37;100890.22;;;9.50;97.16
69784;BME280;57054;51.978;4.498;2023-03-18T06:14:05;100887.66;;;9.49;97.21
69784;BME280;57054;51.978;4.498;2023-03-18T06:16:31;100901.63;;;9.48;97.19
69784;BME280;57054;51.978;4.498;2023-03-18T06:18:57;100906.06;;;9.46;97.53
69784;BME280;57054;51.978;4.498;2023-03-18T06:21:23;100917.44;;;9.45;97.36
69784;BME280;57054;51.978;4.498;2023-03-18T06:23:49;100918.34;;;9.44;97.44
69784;BME280;57054;51.978;4.498;2023-03-18T06:26:14;100916.66;;;9.43;97.25
69784;BME280;57054;51.978;4.498;2023-03-18T06:28:40;100921.97;;;9.39;97.32
69784;BME280;57054;51.978;4.498;2023-03-18T06:31:05;100924.59;;;9.39;97.35
69784;BME280;57054;51.978;4.498;2023-03-18T06:33:30;100928.19;;;9.37;97.38
69784;BME280;57054;51.978;4.498;2023-03-18T06:35:57;100940.38;;;9.36;97.37
69784;BME280;57054;51.978;4.498;2023-03-18T06:38:24;100931.69;;;9.36;97.57
69784;BME280;57054;51.978;4.498;2023-03-18T06:40:49;100936.88;;;9.37;98.01
69784;BME280;57054;51.978;4.498;2023-03-18T06:43:15;100940.38;;;9.36;98.42
69784;BME280;57054;51.978;4.498;2023-03-18T06:45:40;100938.56;;;9.38;98.59
69784;BME280;57054;51.978;4.498;2023-03-18T06:48:06;100941.16;;;9.38;98.92
69784;BME280;57054;51.978;4.498;2023-03-18T06:50:33;100945.50;;;9.39;98.79
69784;BME280;57054;51.978;4.498;2023-03-18T06:52:59;100949.84;;;9.40;99.03
69784;BME280;57054;51.978;4.498;2023-03-18T06:55:25;100953.28;;;9.41;98.85
69784;BME280;57054;51.978;4.498;2023-03-18T06:57:50;100952.38;;;9.42;98.82
69784;BME280;57054;51.978;4.498;2023-03-18T07:00:17;100954.94;;;9.44;99.00
69784;BME280;57054;51.978;4.498;2023-03-18T07:02:42;100951.44;;;9.45;98.80
69784;BME280;57054;51.978;4.498;2023-03-18T07:05:08;100947.03;;;9.45;98.70
69784;BME280;57054;51.978;4.498;2023-03-18T07:07:34;100953.06;;;9.47;99.50
69784;BME280;57054;51.978;4.498;2023-03-18T07:10:03;100955.69;;;9.47;99.34
69784;BME280;57054;51.978;4.498;2023-03-18T07:12:29;100949.56;;;9.48;99.51
69784;BME280;57054;51.978;4.498;2023-03-18T07:14:54;100951.25;;;9.49;99.32
69784;BME280;57054;51.978;4.498;2023-03-18T07:17:20;100954.66;;;9.51;99.63
69784;BME280;57054;51.978;4.498;2023-03-18T07:19:45;100949.38;;;9.53;99.72
69784;BME280;57054;51.978;4.498;2023-03-18T07:22:11;100956.34;;;9.54;100.00
69784;BME280;57054;51.978;4.498;2023-03-18T07:24:37;100959.81;;;9.54;100.00
69784;BME280;57054;51.978;4.498;2023-03-18T07:27:02;100962.41;;;9.54;100.00
69784;BME280;57054;51.978;4.498;2023-03-18T07:29:28;100963.25;;;9.55;100.00
69784;BME280;57054;51.978;4.498;2023-03-18T07:31:53;100960.59;;;9.56;100.00
69784;BME280;57054;51.978;4.498;2023-03-18T07:34:19;100963.22;;;9.56;100.00
69784;BME280;57054;51.978;4.498;2023-03-18T07:36:45;100961.47;;;9.57;100.00
69784;BME280;57054;51.978;4.498;2023-03-18T07:39:11;100954.47;;;9.57;100.00
69784;BME280;57054;51.978;4.498;2023-03-18T07:41:36;100948.31;;;9.58;100.00
69784;BME280;57054;51.978;4.498;2023-03-18T07:44:02;100957.88;;;9.59;100.00
69784;BME280;57054;51.978;4.498;2023-03-18T07:46:27;100963.06;;;9.61;100.00
69784;BME280;57054;51.978;4.498;2023-03-18T07:48:53;100966.53;;;9.61;100.00
69784;BME280;57054;51.978;4.498;2023-03-18T07:51:19;100980.41;;;9.64;100.00
69784;BME280;57054;51.978;4.498;2023-03-18T07:53:44;100979.50;;;9.65;100.00
69784;BME280;57054;51.978;4.498;2023-03-18T07:56:10;100982.06;;;9.66;100.00
69784;BME280;57054;51.978;4.498;2023-03-18T07:58:36;100977.69;;;9.67;100.00
69784;BME280;57054;51.978;4.498;2023-03-18T08:01:03;100977.66;;;9.68;100.00
69784;BME280;57054;51.978;4.498;2023-03-18T08:03:28;100975.81;;;9.70;100.00
69784;BME280;57054;51.978;4.498;2023-03-18T08:05:54;100974.91;;;9.71;100.00
69784;BME280;57054;51.978;4.498;2023-03-18T08:08:20;100971.34;;;9.74;100.00
69784;BME280;57054;51.978;4.498;2023-03-18T08:10:46;100962.56;;;9.75;100.00
69784;BME280;57054;51.978;4.498;2023-03-18T08:13:11;100954.63;;;9.78;100.00
69784;BME280;57054;51.978;4.498;2023-03-18T08:15:37;100951.97;;;9.79;100.00
69784;BME280;57054;51.978;4.498;2023-03-18T08:18:03;100951.91;;;9.81;100.00
69784;BME280;57054;51.978;4.498;2023-03-18T08:20:29;100958.81;;;9.82;100.00
69784;BME280;57054;51.978;4.498;2023-03-18T08:22:54;100963.16;;;9.83;100.00
69784;BME280;57054;51.978;4.498;2023-03-18T08:25:20;100957.03;;;9.84;100.00
69784;BME280;57054;51.978;4.498;2023-03-18T08:27:47;100967.50;;;9.84;100.00
69784;BME280;57054;51.978;4.498;2023-03-18T08:30:13;100972.66;;;9.86;100.00
69784;BME280;57054;51.978;4.498;2023-03-18T08:32:39;100972.59;;;9.87;100.00
69784;BME280;57054;51.978;4.498;2023-03-18T08:35:04;100992.63;;;9.88;100.00
69784;BME280;57054;51.978;4.498;2023-03-18T08:37:30;100993.44;;;9.90;100.00
69784;BME280;57054;51.978;4.498;2023-03-18T08:39:55;100994.22;;;9.92;100.00
69784;BME280;57054;51.978;4.498;2023-03-18T08:42:21;100995.94;;;9.93;100.00
69784;BME280;57054;51.978;4.498;2023-03-18T08:44:46;101011.56;;;9.95;100.00
69784;BME280;57054;51.978;4.498;2023-03-18T08:47:13;101014.13;;;9.96;100.00
69784;BME280;57054;51.978;4.498;2023-03-18T08:49:38;101007.97;;;9.99;100.00
69784;BME280;57054;51.978;4.498;2023-03-18T08:52:04;101016.59;;;10.01;100.00
69784;BME280;57054;51.978;4.498;2023-03-18T08:54:31;101015.69;;;10.02;100.00
69784;BME280;57054;51.978;4.498;2023-03-18T08:56:56;101020.00;;;10.03;100.00
69784;BME280;57054;51.978;4.498;2023-03-18T08:59:22;101033.88;;;10.05;100.00
69784;BME280;57054;51.978;4.498;2023-03-18T09:01:47;101039.13;;;10.05;100.00
69784;BME280;57054;51.978;4.498;2023-03-18T09:04:13;101039.91;;;10.07;100.00
69784;BME280;57054;51.978;4.498;2023-03-18T09:06:39;101037.31;;;10.07;100.00
69784;BME280;57054;51.978;4.498;2023-03-18T09:09:05;101037.31;;;10.07;100.00
69784;BME280;57054;51.978;4.498;2023-03-18T09:11:31;101024.28;;;10.06;100.00
69784;BME280;57054;51.978;4.498;2023-03-18T09:13:57;101026.03;;;10.05;100.00
69784;BME280;57054;51.978;4.498;2023-03-18T09:16:23;101025.16;;;10.06;100.00
69784;BME280;57054;51.978;4.498;2023-03-18T09:18:48;101017.28;;;10.06;100.00
69784;BME280;57054;51.978;4.498;2023-03-18T09:21:13;101024.22;;;10.07;100.00
69784;BME280;57054;51.978;4.498;2023-03-18T09:23:39;101016.31;;;10.09;100.00
69784;BME280;57054;51.978;4.498;2023-03-18T09:26:05;101017.97;;;10.11;100.00
69784;BME280;57054;51.978;4.498;2023-03-18T09:28:30;101014.50;;;10.11;100.00
69784;BME280;57054;51.978;4.498;2023-03-18T09:30:56;101016.16;;;10.13;100.00
69784;BME280;57054;51.978;4.498;2023-03-18T09:33:22;101026.50;;;10.16;100.00
69784;BME280;57054;51.978;4.498;2023-03-18T09:35:48;101036.88;;;10.19;100.00
69784;BME280;57054;51.978;4.498;2023-03-18T09:38:16;101027.19;;;10.22;100.00
69784;BME280;57054;51.978;4.498;2023-03-18T09:46:17;101022.59;;;10.28;100.00
69784;BME280;57054;51.978;4.498;2023-03-18T09:54:50;101024.91;;;10.37;100.00
69784;BME280;57054;51.978;4.498;2023-03-18T09:57:23;101025.66;;;10.41;100.00
69784;BME280;57054;51.978;4.498;2023-03-18T09:59:52;101025.56;;;10.44;100.00
69784;BME280;57054;51.978;4.498;2023-03-18T10:02:40;101022.81;;;10.47;100.00
69784;BME280;57054;51.978;4.498;2023-03-18T10:05:29;101032.28;;;10.51;100.00
69784;BME280;57054;51.978;4.498;2023-03-18T10:08:01;101029.53;;;10.54;100.00
69784;BME280;57054;51.978;4.498;2023-03-18T10:10:40;101031.19;;;10.57;100.00
69784;BME280;57054;51.978;4.498;2023-03-18T10:13:16;101031.94;;;10.61;100.00
69784;BME280;57054;51.978;4.498;2023-03-18T10:15:48;101027.47;;;10.63;100.00
69784;BME280;57054;51.978;4.498;2023-03-18T10:18:28;101029.00;;;10.68;100.00
69784;BME280;57054;51.978;4.498;2023-03-18T10:31:40;101037.16;;;10.84;100.00
69784;BME280;57054;51.978;4.498;2023-03-18T10:34:16;101038.72;;;10.88;100.00
69784;BME280;57054;51.978;4.498;2023-03-18T10:39:21;101043.72;;;10.94;100.00
69784;BME280;57054;51.978;4.498;2023-03-18T10:41:52;101034.81;;;10.99;100.00
69784;BME280;57054;51.978;4.498;2023-03-18T10:44:33;101041.66;;;11.03;100.00
69784;BME280;57054;51.978;4.498;2023-03-18T10:47:25;101041.59;;;11.04;100.00
69784;BME280;57054;51.978;4.498;2023-03-18T10:50:16;101036.16;;;11.09;100.00
69784;BME280;57054;51.978;4.498;2023-03-18T10:52:51;101042.13;;;11.12;100.00
69784;BME280;57054;51.978;4.498;2023-03-18T10:55:22;101049.09;;;11.13;100.00
69784;BME280;57054;51.978;4.498;2023-03-18T10:57:49;101051.63;;;11.15;100.00
69784;BME280;57054;51.978;4.498;2023-03-18T11:00:35;101053.41;;;11.14;100.00
69784;BME280;57054;51.978;4.498;2023-03-18T11:03:03;101047.31;;;11.14;100.00
69784;BME280;57054;51.978;4.498;2023-03-18T11:05:31;101050.84;;;11.13;100.00
69784;BME280;57054;51.978;4.498;2023-03-18T11:08:03;101052.69;;;11.11;100.00
69784;BME280;57054;51.978;4.498;2023-03-18T11:10:44;101050.19;;;11.08;100.00
69784;BME280;57054;51.978;4.498;2023-03-18T11:13:17;101046.75;;;11.06;99.87
69784;BME280;57054;51.978;4.498;2023-03-18T11:15:48;101049.47;;;11.04;100.00
69784;BME280;57054;51.978;4.498;2023-03-18T11:18:18;101048.66;;;11.02;100.00
69784;BME280;57054;51.978;4.498;2023-03-18T11:20:46;101053.03;;;11.02;100.00
69784;BME280;57054;51.978;4.498;2023-03-18T11:23:34;101047.84;;;11.00;100.00
69784;BME280;57054;51.978;4.498;2023-03-18T11:26:26;101038.25;;;11.01;100.00
69784;BME280;57054;51.978;4.498;2023-03-18T11:29:04;101038.16;;;11.02;100.00
69784;BME280;57054;51.978;4.498;2023-03-18T11:31:29;101031.19;;;11.03;100.00
69784;BME280;57054;51.978;4.498;2023-03-18T11:33:58;101033.66;;;11.06;100.00
69784;BME280;57054;51.978;4.498;2023-03-18T11:36:26;101024.78;;;11.10;100.00
69784;BME280;57054;51.978;4.498;2023-03-18T11:39:03;101014.25;;;11.11;100.00
69784;BME280;57054;51.978;4.498;2023-03-18T11:41:30;101017.56;;;11.15;100.00
69784;BME280;57054;51.978;4.498;2023-03-18T11:44:06;101012.16;;;11.20;100.00
69784;BME280;57054;51.978;4.498;2023-03-18T11:49:14;101017.75;;;11.32;100.00
69784;BME280;57054;51.978;4.498;2023-03-18T11:52:09;101018.34;;;11.39;100.00
69784;BME280;57054;51.978;4.498;2023-03-18T11:54:56;101017.19;;;11.46;100.00
69784;BME280;57054;51.978;4.498;2023-03-18T12:08:00;101025.22;;;11.84;96.90
69784;BME280;57054;51.978;4.498;2023-03-18T12:13:05;101019.72;;;11.90;95.42
69784;BME280;57054;51.978;4.498;2023-03-18T12:15:45;101024.91;;;11.92;94.65
69784;BME280;57054;51.978;4.498;2023-03-18T12:22:00;101019.66;;;11.92;94.39
69784;BME280;57054;51.978;4.498;2023-03-18T12:27:31;101016.09;;;11.93;95.05
69784;BME280;57054;51.978;4.498;2023-03-18T12:35:39;101016.75;;;11.98;93.78
69784;BME280;57054;51.978;4.498;2023-03-18T12:45:58;101016.81;;;12.17;94.39
69784;BME280;57054;51.978;4.498;2023-03-18T12:48:34;101007.94;;;12.20;94.57
69784;BME280;57054;51.978;4.498;2023-03-18T12:51:13;101013.78;;;12.26;95.72
69784;BME280;57054;51.978;4.498;2023-03-18T12:53:43;101007.38;;;12.32;95.07
69784;BME280;57054;51.978;4.498;2023-03-18T12:56:14;101012.34;;;12.38;93.95
69784;BME280;57054;51.978;4.498;2023-03-18T12:58:51;101005.91;;;12.45;93.28
69784;BME280;57054;51.978;4.498;2023-03-18T13:01:28;101011.72;;;12.52;93.82
69784;BME280;57054;51.978;4.498;2023-03-18T13:04:06;101005.41;;;12.56;92.92
69784;BME280;57054;51.978;4.498;2023-03-18T13:06:39;101008.75;;;12.60;92.90
69784;BME280;57054;51.978;4.498;2023-03-18T13:12:25;100998.03;;;12.64;93.59
69784;BME280;57054;51.978;4.498;2023-03-18T13:17:31;100993.63;;;12.65;92.84
69784;BME280;57054;51.978;4.498;2023-03-18T13:20:03;100997.88;;;12.67;93.64
69784;BME280;57054;51.978;4.498;2023-03-18T13:31:19;100993.50;;;12.68;91.90
69784;BME280;57054;51.978;4.498;2023-03-18T13:33:52;100989.78;;;12.72;93.45
69784;BME280;57054;51.978;4.498;2023-03-18T13:44:24;100987.63;;;12.80;91.69
69784;BME280;57054;51.978;4.498;2023-03-18T13:46:58;100988.50;;;12.81;91.51
69784;BME280;57054;51.978;4.498;2023-03-18T13:49:28;100982.31;;;12.82;90.72
69784;BME280;57054;51.978;4.498;2023-03-18T13:51:59;100981.22;;;12.86;89.16
69784;BME280;57054;51.978;4.498;2023-03-18T13:54:32;100965.25;;;12.91;88.45
69784;BME280;57054;51.978;4.498;2023-03-18T13:57:30;100971.22;;;12.94;87.76
69784;BME280;57054;51.978;4.498;2023-03-18T14:02:45;100964.94;;;12.97;87.57
69784;BME280;57054;51.978;4.498;2023-03-18T14:05:35;100954.34;;;12.98;88.28
69784;BME280;57054;51.978;4.498;2023-03-18T14:08:31;100953.44;;;12.99;88.57
69784;BME280;57054;51.978;4.498;2023-03-18T14:13:44;100954.41;;;12.97;87.80
69784;BME280;57054;51.978;4.498;2023-03-18T14:16:15;100943.06;;;12.96;87.93
69784;BME280;57054;51.978;4.498;2023-03-18T14:18:59;100946.47;;;12.98;89.89
69784;BME280;57054;51.978;4.498;2023-03-18T14:21:28;100944.53;;;13.02;89.77
69784;BME280;57054;51.978;4.498;2023-03-18T14:26:41;100946.78;;;13.10;87.99
69784;BME280;57054;51.978;4.498;2023-03-18T14:37:13;100952.66;;;13.15;86.29
69784;BME280;57054;51.978;4.498;2023-03-18T14:39:42;100945.66;;;13.15;86.35
69784;BME280;57054;51.978;4.498;2023-03-18T14:42:32;100950.81;;;13.17;85.86
69784;BME280;57054;51.978;4.498;2023-03-18T14:45:33;100941.94;;;13.19;85.64
69784;BME280;57054;51.978;4.498;2023-03-18T14:48:04;100934.75;;;13.23;85.16
69784;BME280;57054;51.978;4.498;2023-03-18T14:50:45;100929.31;;;13.26;85.49